sensor_id;sensor_type;location;lat;lon;timestamp;P1;durP1;ratioP1;P2;durP2;ratioP2
72557;SDS011;60583;50.094;8.748;2024-01-15T00:00:35;25.88;;;8.80;;
72557;SDS011;60583;50.094;8.748;2024-01-15T00:03:19;23.88;;;8.85;;
72557;SDS011;60583;50.094;8.748;2024-01-15T00:06:03;24.05;;;9.63;;
72557;SDS011;60583;50.094;8.748;2024-01-15T00:08:47;24.52;;;9.23;;
72557;SDS011;60583;50.094;8.748;2024-01-15T00:11:31;21.88;;;8.05;;
72557;SDS011;60583;50.094;8.748;2024-01-15T00:14:15;22.30;;;8.30;;
72557;SDS011;60583;50.094;8.748;2024-01-15T00:17:03;20.60;;;7.40;;
72557;SDS011;60583;50.094;8.748;2024-01-15T00:19:47;20.00;;;7.70;;
72557;SDS011;60583;50.094;8.748;2024-01-15T00:22:31;18.10;;;7.25;;
72557;SDS011;60583;50.094;8.748;2024-01-15T00:25:15;19.08;;;7.45;;
72557;SDS011;60583;50.094;8.748;2024-01-15T00:27:59;17.35;;;6.95;;
72557;SDS011;60583;50.094;8.748;2024-01-15T00:30:43;19.58;;;6.65;;
72557;SDS011;60583;50.094;8.748;2024-01-15T00:33:27;24.23;;;9.20;;
72557;SDS011;60583;50.094;8.748;2024-01-15T00:36:11;19.35;;;7.97;;
72557;SDS011;60583;50.094;8.748;2024-01-15T00:38:55;24.17;;;7.18;;
72557;SDS011;60583;50.094;8.748;2024-01-15T00:41:39;20.08;;;8.98;;
72557;SDS011;60583;50.094;8.748;2024-01-15T00:44:23;21.75;;;7.95;;
72557;SDS011;60583;50.094;8.748;2024-01-15T00:47:07;22.77;;;8.57;;
72557;SDS011;60583;50.094;8.748;2024-01-15T00:49:51;26.00;;;8.88;;
72557;SDS011;60583;50.094;8.748;2024-01-15T00:52:35;23.73;;;9.20;;
72557;SDS011;60583;50.094;8.748;2024-01-15T00:55:18;20.92;;;7.65;;
72557;SDS011;60583;50.094;8.748;2024-01-15T00:58:03;23.98;;;8.10;;
72557;SDS011;60583;50.094;8.748;2024-01-15T01:00:47;23.38;;;7.28;;
72557;SDS011;60583;50.094;8.748;2024-01-15T01:03:31;22.63;;;7.82;;
72557;SDS011;60583;50.094;8.748;2024-01-15T01:06:16;25.50;;;9.52;;
72557;SDS011;60583;50.094;8.748;2024-01-15T01:09:00;18.95;;;6.95;;
72557;SDS011;60583;50.094;8.748;2024-01-15T01:11:44;24.60;;;8.82;;
72557;SDS011;60583;50.094;8.748;2024-01-15T01:14:28;27.10;;;9.10;;
72557;SDS011;60583;50.094;8.748;2024-01-15T01:17:12;24.70;;;8.55;;
72557;SDS011;60583;50.094;8.748;2024-01-15T01:19:56;21.65;;;8.10;;
72557;SDS011;60583;50.094;8.748;2024-01-15T01:22:40;23.95;;;8.32;;
72557;SDS011;60583;50.094;8.748;2024-01-15T01:25:24;22.52;;;8.38;;
72557;SDS011;60583;50.094;8.748;2024-01-15T01:28:08;28.15;;;8.90;;
72557;SDS011;60583;50.094;8.748;2024-01-15T01:30:52;26.23;;;9.68;;
72557;SDS011;60583;50.094;8.748;2024-01-15T01:33:38;21.73;;;8.48;;
72557;SDS011;60583;50.094;8.748;2024-01-15T01:36:23;30.55;;;9.63;;
72557;SDS011;60583;50.094;8.748;2024-01-15T01:39:07;28.00;;;10.02;;
72557;SDS011;60583;50.094;8.748;2024-01-15T01:41:52;26.90;;;9.65;;
72557;SDS011;60583;50.094;8.748;2024-01-15T01:44:36;26.08;;;8.18;;
72557;SDS011;60583;50.094;8.748;2024-01-15T01:47:20;23.38;;;7.18;;
72557;SDS011;60583;50.094;8.748;2024-01-15T01:50:04;25.40;;;9.32;;
72557;SDS011;60583;50.094;8.748;2024-01-15T01:52:48;25.38;;;8.45;;
72557;SDS011;60583;50.094;8.748;2024-01-15T01:55:32;26.73;;;9.35;;
72557;SDS011;60583;50.094;8.748;2024-01-15T01:58:18;27.35;;;8.77;;
72557;SDS011;60583;50.094;8.748;2024-01-15T02:01:03;24.52;;;8.35;;
72557;SDS011;60583;50.094;8.748;2024-01-15T02:03:47;21.42;;;7.85;;
72557;SDS011;60583;50.094;8.748;2024-01-15T02:06:32;25.58;;;7.82;;
72557;SDS011;60583;50.094;8.748;2024-01-15T02:09:29;23.08;;;8.60;;
72557;SDS011;60583;50.094;8.748;2024-01-15T02:12:13;23.25;;;8.68;;
72557;SDS011;60583;50.094;8.748;2024-01-15T02:14:57;24.65;;;8.52;;
72557;SDS011;60583;50.094;8.748;2024-01-15T02:17:57;20.75;;;8.90;;
72557;SDS011;60583;50.094;8.748;2024-01-15T02:20:42;22.35;;;8.70;;
72557;SDS011;60583;50.094;8.748;2024-01-15T02:23:27;25.15;;;9.23;;
72557;SDS011;60583;50.094;8.748;2024-01-15T02:26:11;24.77;;;8.55;;
72557;SDS011;60583;50.094;8.748;2024-01-15T02:28:56;26.33;;;8.27;;
72557;SDS011;60583;50.094;8.748;2024-01-15T02:31:40;21.92;;;7.88;;
72557;SDS011;60583;50.094;8.748;2024-01-15T02:34:24;22.27;;;8.85;;
72557;SDS011;60583;50.094;8.748;2024-01-15T02:37:07;24.65;;;8.40;;
72557;SDS011;60583;50.094;8.748;2024-01-15T02:39:51;22.35;;;8.35;;
72557;SDS011;60583;50.094;8.748;2024-01-15T02:42:35;23.30;;;8.23;;
72557;SDS011;60583;50.094;8.748;2024-01-15T02:45:21;22.73;;;9.20;;
72557;SDS011;60583;50.094;8.748;2024-01-15T02:48:05;20.85;;;7.43;;
72557;SDS011;60583;50.094;8.748;2024-01-15T02:50:49;16.60;;;7.22;;
72557;SDS011;60583;50.094;8.748;2024-01-15T02:53:33;21.65;;;8.73;;
72557;SDS011;60583;50.094;8.748;2024-01-15T02:56:19;23.95;;;8.25;;
72557;SDS011;60583;50.094;8.748;2024-01-15T02:59:03;20.98;;;8.15;;
72557;SDS011;60583;50.094;8.748;2024-01-15T03:01:47;23.23;;;8.32;;
72557;SDS011;60583;50.094;8.748;2024-01-15T03:04:31;28.00;;;9.07;;
72557;SDS011;60583;50.094;8.748;2024-01-15T03:07:15;22.40;;;8.43;;
72557;SDS011;60583;50.094;8.748;2024-01-15T03:10:00;21.85;;;8.23;;
72557;SDS011;60583;50.094;8.748;2024-01-15T03:12:43;24.52;;;9.07;;
72557;SDS011;60583;50.094;8.748;2024-01-15T03:15:27;25.00;;;8.55;;
72557;SDS011;60583;50.094;8.748;2024-01-15T03:18:11;24.58;;;9.35;;
72557;SDS011;60583;50.094;8.748;2024-01-15T03:20:55;22.02;;;8.27;;
72557;SDS011;60583;50.094;8.748;2024-01-15T03:23:39;23.35;;;7.55;;
72557;SDS011;60583;50.094;8.748;2024-01-15T03:26:24;22.30;;;8.60;;
72557;SDS011;60583;50.094;8.748;2024-01-15T03:29:07;24.55;;;8.65;;
72557;SDS011;60583;50.094;8.748;2024-01-15T03:31:52;24.20;;;9.35;;
72557;SDS011;60583;50.094;8.748;2024-01-15T03:34:36;25.45;;;7.88;;
72557;SDS011;60583;50.094;8.748;2024-01-15T03:37:20;21.77;;;7.70;;
72557;SDS011;60583;50.094;8.748;2024-01-15T03:40:04;24.85;;;8.30;;
72557;SDS011;60583;50.094;8.748;2024-01-15T03:42:48;24.15;;;8.68;;
72557;SDS011;60583;50.094;8.748;2024-01-15T03:45:32;25.70;;;8.95;;
72557;SDS011;60583;50.094;8.748;2024-01-15T03:48:16;21.88;;;7.97;;
72557;SDS011;60583;50.094;8.748;2024-01-15T03:51:00;21.15;;;7.32;;
72557;SDS011;60583;50.094;8.748;2024-01-15T03:53:44;23.27;;;8.10;;
72557;SDS011;60583;50.094;8.748;2024-01-15T03:56:28;21.27;;;7.82;;
72557;SDS011;60583;50.094;8.748;2024-01-15T03:59:14;22.83;;;8.38;;
72557;SDS011;60583;50.094;8.748;2024-01-15T04:01:57;25.05;;;8.40;;
72557;SDS011;60583;50.094;8.748;2024-01-15T04:04:42;20.60;;;7.05;;
72557;SDS011;60583;50.094;8.748;2024-01-15T04:07:26;19.58;;;6.93;;
72557;SDS011;60583;50.094;8.748;2024-01-15T04:10:10;24.42;;;8.43;;
72557;SDS011;60583;50.094;8.748;2024-01-15T04:12:54;21.38;;;8.15;;
72557;SDS011;60583;50.094;8.748;2024-01-15T04:15:38;20.38;;;8.57;;
72557;SDS011;60583;50.094;8.748;2024-01-15T04:18:22;22.67;;;8.13;;
72557;SDS011;60583;50.094;8.748;2024-01-15T04:21:06;19.83;;;7.32;;
72557;SDS011;60583;50.094;8.748;2024-01-15T04:23:50;28.60;;;8.73;;
72557;SDS011;60583;50.094;8.748;2024-01-15T04:26:34;25.05;;;9.32;;
72557;SDS011;60583;50.094;8.748;2024-01-15T04:29:18;22.35;;;8.32;;
72557;SDS011;60583;50.094;8.748;2024-01-15T04:32:02;23.92;;;8.18;;
72557;SDS011;60583;50.094;8.748;2024-01-15T04:34:46;21.67;;;8.68;;
72557;SDS011;60583;50.094;8.748;2024-01-15T04:37:30;21.10;;;7.97;;
72557;SDS011;60583;50.094;8.748;2024-01-15T04:40:13;22.00;;;7.80;;
72557;SDS011;60583;50.094;8.748;2024-01-15T04:42:58;25.35;;;8.50;;
72557;SDS011;60583;50.094;8.748;2024-01-15T04:45:42;21.55;;;6.68;;
72557;SDS011;60583;50.094;8.748;2024-01-15T04:48:26;22.20;;;8.32;;
72557;SDS011;60583;50.094;8.748;2024-01-15T04:51:10;21.63;;;7.20;;
72557;SDS011;60583;50.094;8.748;2024-01-15T04:53:54;21.73;;;7.80;;
72557;SDS011;60583;50.094;8.748;2024-01-15T04:56:38;19.30;;;7.30;;
72557;SDS011;60583;50.094;8.748;2024-01-15T04:59:22;24.90;;;7.70;;
72557;SDS011;60583;50.094;8.748;2024-01-15T05:02:06;18.27;;;7.18;;
72557;SDS011;60583;50.094;8.748;2024-01-15T05:04:50;20.50;;;7.18;;
72557;SDS011;60583;50.094;8.748;2024-01-15T05:07:34;26.85;;;8.18;;
72557;SDS011;60583;50.094;8.748;2024-01-15T05:10:18;19.17;;;7.53;;
72557;SDS011;60583;50.094;8.748;2024-01-15T05:13:03;21.52;;;7.68;;
72557;SDS011;60583;50.094;8.748;2024-01-15T05:15:47;21.52;;;6.82;;
72557;SDS011;60583;50.094;8.748;2024-01-15T05:18:31;25.30;;;8.20;;
72557;SDS011;60583;50.094;8.748;2024-01-15T05:21:15;20.95;;;6.78;;
72557;SDS011;60583;50.094;8.748;2024-01-15T05:23:59;17.63;;;6.40;;
72557;SDS011;60583;50.094;8.748;2024-01-15T05:26:43;23.77;;;8.40;;
72557;SDS011;60583;50.094;8.748;2024-01-15T05:29:27;20.95;;;7.15;;
72557;SDS011;60583;50.094;8.748;2024-01-15T05:32:11;21.00;;;8.13;;
72557;SDS011;60583;50.094;8.748;2024-01-15T05:34:55;20.10;;;7.78;;
72557;SDS011;60583;50.094;8.748;2024-01-15T05:37:42;19.15;;;7.47;;
72557;SDS011;60583;50.094;8.748;2024-01-15T05:40:28;21.70;;;7.50;;
72557;SDS011;60583;50.094;8.748;2024-01-15T05:43:12;21.23;;;8.32;;
72557;SDS011;60583;50.094;8.748;2024-01-15T05:45:56;17.83;;;7.53;;
72557;SDS011;60583;50.094;8.748;2024-01-15T05:48:40;22.10;;;7.63;;
72557;SDS011;60583;50.094;8.748;2024-01-15T05:51:24;20.25;;;7.53;;
72557;SDS011;60583;50.094;8.748;2024-01-15T05:54:08;21.75;;;7.07;;
72557;SDS011;60583;50.094;8.748;2024-01-15T05:56:52;20.88;;;7.88;;
72557;SDS011;60583;50.094;8.748;2024-01-15T05:59:36;20.60;;;7.97;;
72557;SDS011;60583;50.094;8.748;2024-01-15T06:02:20;19.52;;;7.30;;
72557;SDS011;60583;50.094;8.748;2024-01-15T06:05:04;22.67;;;7.68;;
72557;SDS011;60583;50.094;8.748;2024-01-15T06:07:49;19.95;;;6.80;;
72557;SDS011;60583;50.094;8.748;2024-01-15T06:10:33;21.58;;;8.10;;
72557;SDS011;60583;50.094;8.748;2024-01-15T06:13:17;24.15;;;8.40;;
72557;SDS011;60583;50.094;8.748;2024-01-15T06:16:01;21.65;;;7.68;;
72557;SDS011;60583;50.094;8.748;2024-01-15T06:18:45;19.70;;;7.80;;
72557;SDS011;60583;50.094;8.748;2024-01-15T06:21:29;22.98;;;6.82;;
72557;SDS011;60583;50.094;8.748;2024-01-15T06:24:13;21.77;;;7.75;;
72557;SDS011;60583;50.094;8.748;2024-01-15T06:26:57;21.25;;;7.28;;
72557;SDS011;60583;50.094;8.748;2024-01-15T06:29:44;21.83;;;7.07;;
72557;SDS011;60583;50.094;8.748;2024-01-15T06:32:32;23.58;;;7.97;;
72557;SDS011;60583;50.094;8.748;2024-01-15T06:35:16;23.77;;;9.07;;
72557;SDS011;60583;50.094;8.748;2024-01-15T06:38:00;20.27;;;8.32;;
72557;SDS011;60583;50.094;8.748;2024-01-15T06:40:44;21.90;;;6.82;;
72557;SDS011;60583;50.094;8.748;2024-01-15T06:43:28;22.60;;;7.32;;
72557;SDS011;60583;50.094;8.748;2024-01-15T06:46:12;25.27;;;8.18;;
72557;SDS011;60583;50.094;8.748;2024-01-15T06:48:56;20.05;;;7.47;;
72557;SDS011;60583;50.094;8.748;2024-01-15T06:51:40;22.30;;;8.02;;
72557;SDS011;60583;50.094;8.748;2024-01-15T06:54:25;22.75;;;8.93;;
72557;SDS011;60583;50.094;8.748;2024-01-15T06:57:09;26.25;;;8.70;;
72557;SDS011;60583;50.094;8.748;2024-01-15T06:59:53;22.75;;;8.05;;
72557;SDS011;60583;50.094;8.748;2024-01-15T07:02:37;21.08;;;7.53;;
72557;SDS011;60583;50.094;8.748;2024-01-15T07:05:21;23.73;;;8.43;;
72557;SDS011;60583;50.094;8.748;2024-01-15T07:08:05;21.50;;;7.88;;
72557;SDS011;60583;50.094;8.748;2024-01-15T07:10:49;24.83;;;8.40;;
72557;SDS011;60583;50.094;8.748;2024-01-15T07:13:33;24.23;;;7.93;;
72557;SDS011;60583;50.094;8.748;2024-01-15T07:16:17;21.50;;;8.70;;
72557;SDS011;60583;50.094;8.748;2024-01-15T07:19:01;22.80;;;8.48;;
72557;SDS011;60583;50.094;8.748;2024-01-15T07:21:44;22.92;;;7.78;;
72557;SDS011;60583;50.094;8.748;2024-01-15T07:24:28;17.95;;;6.90;;
72557;SDS011;60583;50.094;8.748;2024-01-15T07:27:12;20.10;;;8.18;;
72557;SDS011;60583;50.094;8.748;2024-01-15T07:29:56;22.13;;;8.23;;
72557;SDS011;60583;50.094;8.748;2024-01-15T07:32:41;21.67;;;8.88;;
72557;SDS011;60583;50.094;8.748;2024-01-15T07:35:25;21.77;;;8.18;;
72557;SDS011;60583;50.094;8.748;2024-01-15T07:38:08;20.50;;;6.70;;
72557;SDS011;60583;50.094;8.748;2024-01-15T07:40:53;19.48;;;7.45;;
72557;SDS011;60583;50.094;8.748;2024-01-15T07:43:39;22.23;;;7.43;;
72557;SDS011;60583;50.094;8.748;2024-01-15T07:46:23;24.00;;;8.93;;
72557;SDS011;60583;50.094;8.748;2024-01-15T07:49:08;21.02;;;8.43;;
72557;SDS011;60583;50.094;8.748;2024-01-15T07:51:52;18.80;;;7.65;;
72557;SDS011;60583;50.094;8.748;2024-01-15T07:54:36;21.88;;;7.00;;
72557;SDS011;60583;50.094;8.748;2024-01-15T07:57:20;19.55;;;6.85;;
72557;SDS011;60583;50.094;8.748;2024-01-15T08:00:04;19.40;;;7.63;;
72557;SDS011;60583;50.094;8.748;2024-01-15T08:02:49;19.25;;;7.53;;
72557;SDS011;60583;50.094;8.748;2024-01-15T08:05:33;21.55;;;8.18;;
72557;SDS011;60583;50.094;8.748;2024-01-15T08:08:16;22.85;;;8.30;;
72557;SDS011;60583;50.094;8.748;2024-01-15T08:11:00;21.02;;;8.25;;
72557;SDS011;60583;50.094;8.748;2024-01-15T08:13:44;20.48;;;7.28;;
72557;SDS011;60583;50.094;8.748;2024-01-15T08:16:28;24.75;;;7.95;;
72557;SDS011;60583;50.094;8.748;2024-01-15T08:19:12;23.23;;;8.93;;
72557;SDS011;60583;50.094;8.748;2024-01-15T08:21:57;24.27;;;8.02;;
72557;SDS011;60583;50.094;8.748;2024-01-15T08:24:41;21.00;;;8.05;;
72557;SDS011;60583;50.094;8.748;2024-01-15T08:27:25;21.38;;;7.93;;
72557;SDS011;60583;50.094;8.748;2024-01-15T08:30:09;25.17;;;8.93;;
72557;SDS011;60583;50.094;8.748;2024-01-15T08:32:54;18.10;;;6.68;;
72557;SDS011;60583;50.094;8.748;2024-01-15T08:35:38;22.58;;;9.07;;
72557;SDS011;60583;50.094;8.748;2024-01-15T08:38:22;18.83;;;7.95;;
72557;SDS011;60583;50.094;8.748;2024-01-15T08:41:06;19.20;;;8.63;;
72557;SDS011;60583;50.094;8.748;2024-01-15T08:43:52;19.73;;;7.30;;
72557;SDS011;60583;50.094;8.748;2024-01-15T08:46:38;22.27;;;8.57;;
72557;SDS011;60583;50.094;8.748;2024-01-15T08:49:22;20.27;;;8.38;;
72557;SDS011;60583;50.094;8.748;2024-01-15T08:52:06;22.88;;;7.55;;
72557;SDS011;60583;50.094;8.748;2024-01-15T08:54:50;19.15;;;8.63;;
72557;SDS011;60583;50.094;8.748;2024-01-15T08:57:34;21.05;;;7.50;;
72557;SDS011;60583;50.094;8.748;2024-01-15T09:00:18;21.48;;;7.93;;
72557;SDS011;60583;50.094;8.748;2024-01-15T09:03:02;21.13;;;7.88;;
72557;SDS011;60583;50.094;8.748;2024-01-15T09:05:47;18.23;;;8.13;;
72557;SDS011;60583;50.094;8.748;2024-01-15T09:08:32;20.27;;;7.78;;
72557;SDS011;60583;50.094;8.748;2024-01-15T09:11:16;23.25;;;7.68;;
72557;SDS011;60583;50.094;8.748;2024-01-15T09:14:00;20.67;;;8.13;;
72557;SDS011;60583;50.094;8.748;2024-01-15T09:16:44;18.40;;;7.25;;
72557;SDS011;60583;50.094;8.748;2024-01-15T09:19:29;18.75;;;8.13;;
72557;SDS011;60583;50.094;8.748;2024-01-15T09:22:13;20.80;;;7.65;;
72557;SDS011;60583;50.094;8.748;2024-01-15T09:24:58;18.27;;;7.45;;
72557;SDS011;60583;50.094;8.748;2024-01-15T09:27:42;21.08;;;8.32;;
72557;SDS011;60583;50.094;8.748;2024-01-15T09:30:26;18.98;;;6.72;;
72557;SDS011;60583;50.094;8.748;2024-01-15T09:33:10;19.98;;;7.78;;
72557;SDS011;60583;50.094;8.748;2024-01-15T09:35:54;17.40;;;7.82;;
72557;SDS011;60583;50.094;8.748;2024-01-15T09:38:37;20.60;;;7.32;;
72557;SDS011;60583;50.094;8.748;2024-01-15T09:41:25;17.52;;;7.38;;
72557;SDS011;60583;50.094;8.748;2024-01-15T09:44:08;17.38;;;7.22;;
72557;SDS011;60583;50.094;8.748;2024-01-15T09:46:55;16.50;;;7.75;;
72557;SDS011;60583;50.094;8.748;2024-01-15T09:49:39;16.13;;;6.82;;
72557;SDS011;60583;50.094;8.748;2024-01-15T09:52:24;19.42;;;7.70;;
72557;SDS011;60583;50.094;8.748;2024-01-15T09:55:09;15.68;;;7.25;;
72557;SDS011;60583;50.094;8.748;2024-01-15T09:57:53;16.52;;;7.35;;
72557;SDS011;60583;50.094;8.748;2024-01-15T10:00:39;14.95;;;6.88;;
72557;SDS011;60583;50.094;8.748;2024-01-15T10:03:27;16.33;;;7.30;;
72557;SDS011;60583;50.094;8.748;2024-01-15T10:06:10;13.57;;;5.57;;
72557;SDS011;60583;50.094;8.748;2024-01-15T10:08:59;15.85;;;6.53;;
72557;SDS011;60583;50.094;8.748;2024-01-15T10:11:44;12.05;;;5.15;;
72557;SDS011;60583;50.094;8.748;2024-01-15T10:14:28;14.25;;;6.65;;
72557;SDS011;60583;50.094;8.748;2024-01-15T10:17:13;12.55;;;5.93;;
72557;SDS011;60583;50.094;8.748;2024-01-15T10:20:00;15.73;;;6.38;;
72557;SDS011;60583;50.094;8.748;2024-01-15T10:22:45;14.63;;;5.93;;
72557;SDS011;60583;50.094;8.748;2024-01-15T10:25:30;14.55;;;5.93;;
72557;SDS011;60583;50.094;8.748;2024-01-15T10:28:14;16.13;;;6.45;;
72557;SDS011;60583;50.094;8.748;2024-01-15T10:31:00;15.93;;;6.75;;
72557;SDS011;60583;50.094;8.748;2024-01-15T10:33:44;12.57;;;5.57;;
72557;SDS011;60583;50.094;8.748;2024-01-15T10:36:27;15.80;;;5.65;;
72557;SDS011;60583;50.094;8.748;2024-01-15T10:39:13;14.98;;;6.63;;
72557;SDS011;60583;50.094;8.748;2024-01-15T10:41:57;15.93;;;6.57;;
72557;SDS011;60583;50.094;8.748;2024-01-15T10:44:41;15.38;;;7.20;;
72557;SDS011;60583;50.094;8.748;2024-01-15T10:47:27;15.85;;;6.53;;
72557;SDS011;60583;50.094;8.748;2024-01-15T10:50:12;14.18;;;5.80;;
72557;SDS011;60583;50.094;8.748;2024-01-15T10:52:56;16.75;;;5.70;;
72557;SDS011;60583;50.094;8.748;2024-01-15T10:55:40;15.77;;;6.82;;
72557;SDS011;60583;50.094;8.748;2024-01-15T10:58:26;16.33;;;6.43;;
72557;SDS011;60583;50.094;8.748;2024-01-15T11:01:12;19.30;;;9.45;;
72557;SDS011;60583;50.094;8.748;2024-01-15T11:03:57;15.32;;;7.10;;
72557;SDS011;60583;50.094;8.748;2024-01-15T11:06:42;15.05;;;6.32;;
72557;SDS011;60583;50.094;8.748;2024-01-15T11:09:28;14.88;;;6.45;;
72557;SDS011;60583;50.094;8.748;2024-01-15T11:12:13;15.23;;;6.38;;
72557;SDS011;60583;50.094;8.748;2024-01-15T11:15:03;13.20;;;6.35;;
72557;SDS011;60583;50.094;8.748;2024-01-15T11:18:00;14.32;;;6.50;;
72557;SDS011;60583;50.094;8.748;2024-01-15T11:21:19;13.23;;;6.43;;
72557;SDS011;60583;50.094;8.748;2024-01-15T11:23:59;17.95;;;9.93;;
72557;SDS011;60583;50.094;8.748;2024-01-15T11:26:44;17.92;;;8.18;;
72557;SDS011;60583;50.094;8.748;2024-01-15T11:29:30;15.13;;;7.07;;
72557;SDS011;60583;50.094;8.748;2024-01-15T11:32:18;13.52;;;6.22;;
72557;SDS011;60583;50.094;8.748;2024-01-15T11:35:17;13.82;;;5.82;;
72557;SDS011;60583;50.094;8.748;2024-01-15T11:38:02;14.18;;;6.93;;
72557;SDS011;60583;50.094;8.748;2024-01-15T11:40:46;14.43;;;6.00;;
72557;SDS011;60583;50.094;8.748;2024-01-15T11:43:31;12.40;;;5.70;;
72557;SDS011;60583;50.094;8.748;2024-01-15T11:46:17;12.40;;;6.45;;
72557;SDS011;60583;50.094;8.748;2024-01-15T11:49:03;14.07;;;6.93;;
72557;SDS011;60583;50.094;8.748;2024-01-15T11:51:49;12.73;;;5.93;;
72557;SDS011;60583;50.094;8.748;2024-01-15T11:54:37;12.32;;;5.97;;
72557;SDS011;60583;50.094;8.748;2024-01-15T11:57:25;13.73;;;6.20;;
72557;SDS011;60583;50.094;8.748;2024-01-15T12:00:20;12.73;;;6.55;;
72557;SDS011;60583;50.094;8.748;2024-01-15T12:03:05;15.13;;;7.63;;
72557;SDS011;60583;50.094;8.748;2024-01-15T12:05:50;15.05;;;6.22;;
72557;SDS011;60583;50.094;8.748;2024-01-15T12:08:36;16.20;;;9.05;;
72557;SDS011;60583;50.094;8.748;2024-01-15T12:11:20;19.15;;;7.72;;
72557;SDS011;60583;50.094;8.748;2024-01-15T12:14:08;14.63;;;7.20;;
72557;SDS011;60583;50.094;8.748;2024-01-15T12:16:52;14.32;;;6.68;;
72557;SDS011;60583;50.094;8.748;2024-01-15T12:19:37;14.50;;;6.63;;
72557;SDS011;60583;50.094;8.748;2024-01-15T12:22:21;14.32;;;6.55;;
72557;SDS011;60583;50.094;8.748;2024-01-15T12:25:05;15.20;;;6.53;;
72557;SDS011;60583;50.094;8.748;2024-01-15T12:27:49;14.15;;;6.40;;
72557;SDS011;60583;50.094;8.748;2024-01-15T12:30:34;12.52;;;5.72;;
72557;SDS011;60583;50.094;8.748;2024-01-15T12:33:19;13.57;;;5.95;;
72557;SDS011;60583;50.094;8.748;2024-01-15T12:36:04;15.85;;;6.82;;
72557;SDS011;60583;50.094;8.748;2024-01-15T12:38:49;18.80;;;7.82;;
72557;SDS011;60583;50.094;8.748;2024-01-15T12:41:33;14.57;;;6.10;;
72557;SDS011;60583;50.094;8.748;2024-01-15T12:44:17;13.68;;;5.82;;
72557;SDS011;60583;50.094;8.748;2024-01-15T12:47:01;12.35;;;4.95;;
72557;SDS011;60583;50.094;8.748;2024-01-15T12:49:48;15.55;;;5.90;;
72557;SDS011;60583;50.094;8.748;2024-01-15T12:52:37;13.60;;;6.55;;
72557;SDS011;60583;50.094;8.748;2024-01-15T12:55:24;14.20;;;6.53;;
72557;SDS011;60583;50.094;8.748;2024-01-15T12:58:08;15.35;;;6.72;;
72557;SDS011;60583;50.094;8.748;2024-01-15T13:00:52;13.30;;;5.85;;
72557;SDS011;60583;50.094;8.748;2024-01-15T13:03:36;13.82;;;5.32;;
72557;SDS011;60583;50.094;8.748;2024-01-15T13:06:20;28.15;;;12.73;;
72557;SDS011;60583;50.094;8.748;2024-01-15T13:09:05;19.48;;;8.70;;
72557;SDS011;60583;50.094;8.748;2024-01-15T13:11:49;13.13;;;5.82;;
72557;SDS011;60583;50.094;8.748;2024-01-15T13:14:33;9.82;;;4.80;;
72557;SDS011;60583;50.094;8.748;2024-01-15T13:17:17;11.38;;;4.70;;
72557;SDS011;60583;50.094;8.748;2024-01-15T13:20:01;10.85;;;5.38;;
72557;SDS011;60583;50.094;8.748;2024-01-15T13:22:46;11.55;;;4.88;;
72557;SDS011;60583;50.094;8.748;2024-01-15T13:25:30;9.60;;;4.82;;
72557;SDS011;60583;50.094;8.748;2024-01-15T13:28:14;10.48;;;4.70;;
72557;SDS011;60583;50.094;8.748;2024-01-15T13:30:58;11.90;;;6.18;;
72557;SDS011;60583;50.094;8.748;2024-01-15T13:33:42;13.63;;;6.43;;
72557;SDS011;60583;50.094;8.748;2024-01-15T13:36:26;10.80;;;5.15;;
72557;SDS011;60583;50.094;8.748;2024-01-15T13:39:11;9.90;;;5.20;;
72557;SDS011;60583;50.094;8.748;2024-01-15T13:41:54;8.70;;;4.97;;
72557;SDS011;60583;50.094;8.748;2024-01-15T13:44:39;11.52;;;5.50;;
72557;SDS011;60583;50.094;8.748;2024-01-15T13:47:23;9.48;;;4.47;;
72557;SDS011;60583;50.094;8.748;2024-01-15T13:50:07;13.07;;;4.45;;
72557;SDS011;60583;50.094;8.748;2024-01-15T13:52:52;8.70;;;4.32;;
72557;SDS011;60583;50.094;8.748;2024-01-15T13:55:36;10.13;;;4.00;;
72557;SDS011;60583;50.094;8.748;2024-01-15T13:58:20;8.75;;;3.60;;
72557;SDS011;60583;50.094;8.748;2024-01-15T14:01:05;9.40;;;3.88;;
72557;SDS011;60583;50.094;8.748;2024-01-15T14:03:49;10.57;;;4.47;;
72557;SDS011;60583;50.094;8.748;2024-01-15T14:06:33;10.57;;;4.05;;
72557;SDS011;60583;50.094;8.748;2024-01-15T14:09:17;9.25;;;3.70;;
72557;SDS011;60583;50.094;8.748;2024-01-15T14:12:01;8.90;;;3.92;;
72557;SDS011;60583;50.094;8.748;2024-01-15T14:14:46;10.05;;;4.03;;
72557;SDS011;60583;50.094;8.748;2024-01-15T14:17:31;9.95;;;4.47;;
72557;SDS011;60583;50.094;8.748;2024-01-15T14:20:16;8.80;;;4.40;;
72557;SDS011;60583;50.094;8.748;2024-01-15T14:23:01;8.20;;;3.75;;
72557;SDS011;60583;50.094;8.748;2024-01-15T14:25:45;10.85;;;4.53;;
72557;SDS011;60583;50.094;8.748;2024-01-15T14:28:29;8.60;;;4.47;;
72557;SDS011;60583;50.094;8.748;2024-01-15T14:31:13;9.45;;;4.00;;
72557;SDS011;60583;50.094;8.748;2024-01-15T14:33:56;9.48;;;4.45;;
72557;SDS011;60583;50.094;8.748;2024-01-15T14:36:42;8.27;;;4.18;;
72557;SDS011;60583;50.094;8.748;2024-01-15T14:39:26;8.38;;;3.72;;
72557;SDS011;60583;50.094;8.748;2024-01-15T14:42:10;8.63;;;3.55;;
72557;SDS011;60583;50.094;8.748;2024-01-15T14:44:54;10.25;;;4.38;;
72557;SDS011;60583;50.094;8.748;2024-01-15T14:47:39;9.63;;;4.47;;
72557;SDS011;60583;50.094;8.748;2024-01-15T14:50:23;8.38;;;3.60;;
72557;SDS011;60583;50.094;8.748;2024-01-15T14:53:08;8.65;;;3.63;;
72557;SDS011;60583;50.094;8.748;2024-01-15T14:55:53;10.00;;;3.97;;
72557;SDS011;60583;50.094;8.748;2024-01-15T14:58:38;9.73;;;3.90;;
72557;SDS011;60583;50.094;8.748;2024-01-15T15:01:22;9.15;;;3.97;;
72557;SDS011;60583;50.094;8.748;2024-01-15T15:04:06;8.43;;;3.10;;
72557;SDS011;60583;50.094;8.748;2024-01-15T15:06:51;8.98;;;3.33;;
72557;SDS011;60583;50.094;8.748;2024-01-15T15:09:35;8.48;;;4.22;;
72557;SDS011;60583;50.094;8.748;2024-01-15T15:12:21;7.97;;;3.60;;
72557;SDS011;60583;50.094;8.748;2024-01-15T15:15:05;8.10;;;3.25;;
72557;SDS011;60583;50.094;8.748;2024-01-15T15:17:50;10.18;;;3.90;;
72557;SDS011;60583;50.094;8.748;2024-01-15T15:20:34;8.68;;;3.55;;
72557;SDS011;60583;50.094;8.748;2024-01-15T15:23:18;7.85;;;3.38;;
72557;SDS011;60583;50.094;8.748;2024-01-15T15:26:02;8.98;;;4.38;;
72557;SDS011;60583;50.094;8.748;2024-01-15T15:28:47;7.85;;;4.25;;
72557;SDS011;60583;50.094;8.748;2024-01-15T15:31:30;10.07;;;4.45;;
72557;SDS011;60583;50.094;8.748;2024-01-15T15:34:14;6.85;;;4.03;;
72557;SDS011;60583;50.094;8.748;2024-01-15T15:36:59;10.13;;;4.07;;
72557;SDS011;60583;50.094;8.748;2024-01-15T15:39:43;10.13;;;4.35;;
72557;SDS011;60583;50.094;8.748;2024-01-15T15:42:27;10.38;;;4.15;;
72557;SDS011;60583;50.094;8.748;2024-01-15T15:45:11;7.63;;;3.80;;
72557;SDS011;60583;50.094;8.748;2024-01-15T15:47:56;6.75;;;3.05;;
72557;SDS011;60583;50.094;8.748;2024-01-15T15:50:40;10.23;;;4.18;;
72557;SDS011;60583;50.094;8.748;2024-01-15T15:53:24;8.80;;;3.25;;
72557;SDS011;60583;50.094;8.748;2024-01-15T15:56:08;7.53;;;3.08;;
72557;SDS011;60583;50.094;8.748;2024-01-15T15:58:54;8.80;;;3.80;;
72557;SDS011;60583;50.094;8.748;2024-01-15T16:01:38;7.68;;;3.28;;
72557;SDS011;60583;50.094;8.748;2024-01-15T16:04:22;7.88;;;3.55;;
72557;SDS011;60583;50.094;8.748;2024-01-15T16:07:06;9.27;;;3.70;;
72557;SDS011;60583;50.094;8.748;2024-01-15T16:09:52;6.88;;;2.80;;
72557;SDS011;60583;50.094;8.748;2024-01-15T16:12:36;8.85;;;3.72;;
72557;SDS011;60583;50.094;8.748;2024-01-15T16:15:22;9.07;;;3.03;;
72557;SDS011;60583;50.094;8.748;2024-01-15T16:18:06;6.10;;;2.60;;